Time;durP1;ratioP1;P1;durP2;ratioP2;P2;SDS_P1;SDS_P2;PMS_P1;PMS_P2;Temp;Humidity;BMP_temperature;BMP_pressure;BME280_temperature;BME280_humidity;BME280_pressure;Samples;Min_cycle;Max_cycle;Signal;HPM_P1;HPM_P2
2021/11/14 00:00:19;;;;;;;28.13;20.90;;;;;;;10.46;100.00;98255.94;5075544;28;20047;-59
2021/11/14 00:02:45;;;;;;;32.05;19.92;;;;;;;10.37;100.00;98252.44;5056449;28;20043;-59
2021/11/14 00:05:11;;;;;;;32.08;22.80;;;;;;;10.38;100.00;98258.47;5071782;28;20028;-59
2021/11/14 00:07:36;;;;;;;32.28;24.85;;;;;;;10.38;100.00;98255.84;5067709;28;20483;-59
2021/11/14 00:10:04;;;;;;;34.35;26.08;;;;;;;10.30;100.00;98254.00;5104724;27;20024;-60
2021/11/14 00:12:29;;;;;;;29.95;20.83;;;;;;;10.25;100.00;98258.81;5061642;28;20032;-59
2021/11/14 00:14:55;;;;;;;29.10;19.40;;;;;;;10.20;100.00;98254.09;5070864;28;20073;-60
2021/11/14 00:17:20;;;;;;;29.30;20.50;;;;;;;9.95;100.00;98216.72;5077578;28;20491;-59
2021/11/14 00:19:46;;;;;;;27.30;19.85;;;;;;;9.88;100.00;98200.09;5080699;28;20031;-60
2021/11/14 00:22:11;;;;;;;27.67;20.02;;;;;;;10.24;100.00;98256.38;5071771;28;20130;-59
2021/11/14 00:24:36;;;;;;;27.88;19.27;;;;;;;10.10;100.00;98218.78;5076954;28;20095;-60
2021/11/14 00:27:02;;;;;;;26.63;18.73;;;;;;;10.31;100.00;98249.63;5072099;28;20030;-59
2021/11/14 00:29:27;;;;;;;28.58;19.80;;;;;;;10.29;100.00;98246.34;5069867;28;20027;-59
2021/11/14 00:31:53;;;;;;;25.63;19.00;;;;;;;10.33;100.00;98252.91;5077816;28;20028;-60
2021/11/14 00:34:18;;;;;;;28.55;19.70;;;;;;;10.15;100.00;98227.75;5070781;28;20430;-60
2021/11/14 00:36:45;;;;;;;28.42;19.98;;;;;;;10.22;100.00;98227.13;5071426;28;20031;-60
2021/11/14 00:39:16;;;;;;;26.77;18.83;;;;;;;10.19;100.00;98244.66;5071089;28;20061;-59
2021/11/14 00:41:42;;;;;;;27.73;19.58;;;;;;;10.04;100.00;98220.19;5073868;27;20035;-60
2021/11/14 00:44:08;;;;;;;27.40;18.88;;;;;;;10.18;100.00;98242.22;5077232;28;20237;-60
2021/11/14 00:46:33;;;;;;;25.77;18.83;;;;;;;10.19;100.00;98230.84;5069963;28;20402;-60
2021/11/14 00:48:59;;;;;;;27.38;19.05;;;;;;;10.29;100.00;98233.34;5070962;28;20147;-59
2021/11/14 00:51:29;;;;;;;27.65;19.70;;;;;;;10.28;100.00;98237.75;5068863;28;20029;-60
2021/11/14 00:54:03;;;;;;;26.77;19.83;;;;;;;10.23;100.00;98234.78;5067835;28;20052;-59
2021/11/14 00:56:29;;;;;;;25.75;18.95;;;;;;;10.12;100.00;98220.25;5072213;28;20134;-59
2021/11/14 00:58:55;;;;;;;30.17;18.92;;;;;;;9.94;100.00;98188.28;5078740;28;20145;-59
2021/11/14 01:01:21;;;;;;;27.90;19.50;;;;;;;9.99;100.00;98191.25;5071325;28;20597;-59
2021/11/14 01:03:47;;;;;;;28.40;20.73;;;;;;;10.20;100.00;98235.91;5081407;28;20040;-59
2021/11/14 01:06:13;;;;;;;31.05;20.17;;;;;;;10.26;100.00;98226.69;5071289;28;20523;-60
2021/11/14 01:08:39;;;;;;;28.00;19.75;;;;;;;10.21;100.00;98226.31;5074074;28;20111;-60
2021/11/14 01:11:05;;;;;;;27.88;19.73;;;;;;;10.22;100.00;98225.34;5074092;28;20635;-60
2021/11/14 01:13:32;;;;;;;27.55;19.08;;;;;;;10.05;100.00;98190.63;5064049;28;20025;-59
2021/11/14 01:15:59;;;;;;;27.10;18.40;;;;;;;10.25;100.00;98222.44;5074685;28;20052;-59
2021/11/14 01:18:25;;;;;;;26.40;18.95;;;;;;;10.28;100.00;98226.53;5078152;28;20413;-59
2021/11/14 01:20:53;;;;;;;27.95;19.25;;;;;;;10.19;100.00;98218.66;5067882;28;20768;-59
2021/11/14 01:23:20;;;;;;;28.45;19.30;;;;;;;10.32;100.00;98233.09;5075319;28;20081;-59
2021/11/14 01:25:46;;;;;;;28.08;19.70;;;;;;;10.23;100.00;98220.97;5072897;28;20023;-59
2021/11/14 01:28:12;;;;;;;26.75;19.70;;;;;;;10.30;100.00;98229.81;5072979;28;20690;-59
2021/11/14 01:30:40;;;;;;;26.45;18.85;;;;;;;10.23;100.00;98224.38;5069309;28;20093;-59
2021/11/14 01:33:07;;;;;;;27.60;19.00;;;;;;;10.15;100.00;98193.16;5068031;28;20172;-59
2021/11/14 01:35:34;;;;;;;29.10;20.23;;;;;;;10.22;100.00;98212.34;5067281;28;20375;-60
2021/11/14 01:38:00;;;;;;;26.90;18.63;;;;;;;10.32;100.00;98220.09;5061942;28;20438;-59
2021/11/14 01:40:29;;;;;;;26.88;19.23;;;;;;;10.13;100.00;98187.28;5071906;28;20024;-60
2021/11/14 01:42:55;;;;;;;28.60;19.60;;;;;;;10.31;100.00;98221.88;5088285;27;20028;-60
2021/11/14 01:45:21;;;;;;;26.83;19.05;;;;;;;10.32;100.00;98209.69;5068280;28;20111;-60
2021/11/14 01:47:47;;;;;;;29.05;19.13;;;;;;;10.34;100.00;98205.97;5068896;28;20150;-59
2021/11/14 01:50:15;;;;;;;26.13;18.80;;;;;;;10.31;100.00;98206.28;5050060;28;20031;-59
2021/11/14 01:52:42;;;;;;;27.23;19.48;;;;;;;10.15;100.00;98172.38;5069873;28;20013;-60
2021/11/14 01:55:09;;;;;;;25.38;17.75;;;;;;;10.39;100.00;98210.72;5061611;28;20051;-59
2021/11/14 01:57:36;;;;;;;25.95;19.40;;;;;;;10.35;100.00;98212.00;5063542;28;20532;-60
2021/11/14 02:00:10;;;;;;;26.40;18.55;;;;;;;10.33;100.00;98212.16;5067848;28;20028;-59
2021/11/14 02:02:36;;;;;;;29.23;18.58;;;;;;;10.32;100.00;98207.91;5061602;28;20024;-58
2021/11/14 02:05:02;;;;;;;26.55;18.88;;;;;;;10.34;100.00;98211.16;5061519;28;20514;-60
2021/11/14 02:07:27;;;;;;;25.05;18.17;;;;;;;10.03;100.00;98166.59;5102958;27;20031;-57
2021/11/14 02:09:53;;;;;;;24.48;18.75;;;;;;;10.19;100.00;98203.09;5098523;27;20371;-59
2021/11/14 02:12:18;;;;;;;26.00;18.20;;;;;;;10.23;100.00;98213.19;5062986;28;20055;-59
2021/11/14 02:14:44;;;;;;;26.38;17.77;;;;;;;10.29;100.00;98205.56;5072550;28;20507;-57
2021/11/14 02:17:10;;;;;;;25.10;18.20;;;;;;;10.26;100.00;98199.88;5065107;28;20054;-59
2021/11/14 02:19:35;;;;;;;26.75;17.70;;;;;;;10.26;100.00;98207.66;5069125;28;20794;-60
2021/11/14 02:22:01;;;;;;;27.00;18.73;;;;;;;10.13;100.00;98203.69;5065279;28;20028;-58
2021/11/14 02:24:27;;;;;;;26.65;18.30;;;;;;;10.17;100.00;98209.41;5064345;28;20122;-58
2021/11/14 02:26:52;;;;;;;27.60;18.48;;;;;;;9.94;100.00;98164.91;5067679;28;20031;-59
2021/11/14 02:29:18;;;;;;;26.48;18.20;;;;;;;10.28;100.00;98208.34;5070198;28;20028;-58
2021/11/14 02:31:44;;;;;;;26.55;18.48;;;;;;;10.28;100.00;98196.16;5066294;28;20052;-59
2021/11/14 02:34:10;;;;;;;27.50;17.67;;;;;;;10.32;100.00;98204.50;5069483;28;20028;-58
2021/11/14 02:36:36;;;;;;;25.00;16.92;;;;;;;10.20;100.00;98186.53;5066506;28;20097;-57
2021/11/14 02:39:03;;;;;;;24.73;17.75;;;;;;;10.20;100.00;98191.75;5072871;28;20028;-58
2021/11/14 02:41:29;;;;;;;26.63;17.77;;;;;;;10.14;100.00;98183.72;5068166;28;20046;-60
2021/11/14 02:43:55;;;;;;;25.83;18.20;;;;;;;10.24;100.00;98196.59;5066182;28;20471;-58
2021/11/14 02:46:20;;;;;;;25.92;17.85;;;;;;;10.28;100.00;98187.56;5072318;28;20531;-60
2021/11/14 02:48:47;;;;;;;28.08;18.90;;;;;;;10.23;100.00;98184.59;5055626;28;20043;-57
2021/11/14 02:51:20;;;;;;;27.05;17.52;;;;;;;10.24;100.00;98189.66;5062028;28;20068;-58
2021/11/14 02:53:45;;;;;;;24.25;17.15;;;;;;;9.98;100.00;98142.88;5061062;28;20032;-60
2021/11/14 02:56:13;;;;;;;25.15;17.15;;;;;;;10.34;100.00;98179.19;5066347;28;20025;-60
2021/11/14 02:58:39;;;;;;;24.80;17.10;;;;;;;10.31;100.00;98179.47;5079860;28;20081;-59
2021/11/14 03:01:14;;;;;;;24.95;17.42;;;;;;;10.29;100.00;98173.59;5059769;28;20024;-59
2021/11/14 03:03:40;;;;;;;25.70;17.70;;;;;;;10.20;100.00;98175.31;5069153;28;20127;-62
2021/11/14 03:06:06;;;;;;;24.67;17.30;;;;;;;10.23;100.00;98184.59;5070521;28;20063;-60
2021/11/14 03:08:33;;;;;;;24.67;17.60;;;;;;;10.21;100.00;98171.75;5067100;28;20032;-59
2021/11/14 03:10:58;;;;;;;24.63;17.17;;;;;;;10.25;100.00;98175.69;5066393;28;20036;-58
2021/11/14 03:13:25;;;;;;;25.13;17.13;;;;;;;10.23;100.00;98164.63;5066286;28;20021;-59
2021/11/14 03:15:54;;;;;;;25.90;17.83;;;;;;;10.24;100.00;98165.44;5073106;28;20028;-59
2021/11/14 03:18:20;;;;;;;24.40;18.23;;;;;;;10.24;100.00;98161.06;5069208;28;20035;-59
2021/11/14 03:20:47;;;;;;;25.15;18.20;;;;;;;10.29;100.00;98169.19;5070117;28;20132;-60
2021/11/14 03:23:13;;;;;;;23.88;15.95;;;;;;;10.35;100.00;98176.44;5064449;28;20159;-59
2021/11/14 03:25:39;;;;;;;24.42;17.30;;;;;;;9.88;100.00;98095.41;5067570;28;20150;-60
2021/11/14 03:28:05;;;;;;;23.02;16.52;;;;;;;10.33;100.00;98172.34;5065328;28;20038;-58
2021/11/14 03:30:35;;;;;;;25.73;17.35;;;;;;;10.13;100.00;98167.34;5080734;28;20028;-59
2021/11/14 03:33:05;;;;;;;23.58;16.30;;;;;;;10.03;100.00;98145.81;5071173;28;20032;-59
2021/11/14 03:35:38;;;;;;;25.65;17.05;;;;;;;10.14;100.00;98161.16;5066116;28;20205;-60
2021/11/14 03:38:04;;;;;;;25.15;17.15;;;;;;;10.13;100.00;98169.94;5071625;28;20109;-57
2021/11/14 03:40:29;;;;;;;25.40;17.35;;;;;;;10.23;100.00;98166.41;5067643;28;20072;-57
2021/11/14 03:42:55;;;;;;;26.08;16.60;;;;;;;10.31;100.00;98180.31;5072036;28;20518;-60
2021/11/14 03:45:20;;;;;;;23.88;16.48;;;;;;;10.23;100.00;98176.81;5056478;28;20089;-58
2021/11/14 03:47:46;;;;;;;25.13;17.55;;;;;;;9.93;100.00;98132.94;5074151;28;20344;-59
2021/11/14 03:50:12;;;;;;;25.55;17.33;;;;;;;9.97;100.00;98141.25;5074231;28;20035;-58
2021/11/14 03:52:39;;;;;;;25.13;17.42;;;;;;;10.23;100.00;98172.41;5070697;28;20040;-59
2021/11/14 03:55:05;;;;;;;26.45;17.55;;;;;;;10.31;100.00;98174.28;5073513;28;20352;-57
2021/11/14 03:57:31;;;;;;;23.92;17.45;;;;;;;10.06;100.00;98134.31;5070130;28;20038;-57
2021/11/14 03:59:56;;;;;;;25.92;17.50;;;;;;;10.30;100.00;98178.63;5073756;28;20036;-58
2021/11/14 04:02:22;;;;;;;28.08;18.10;;;;;;;10.22;100.00;98175.97;5065490;28;20370;-57
2021/11/14 04:04:47;;;;;;;23.73;17.40;;;;;;;10.17;100.00;98154.84;5059788;28;20671;-58
2021/11/14 04:07:13;;;;;;;27.05;18.10;;;;;;;10.34;100.00;98177.38;5070555;28;20128;-59
2021/11/14 04:09:38;;;;;;;24.85;17.83;;;;;;;10.36;100.00;98177.22;5103023;27;20033;-59
2021/11/14 04:12:04;;;;;;;24.60;17.38;;;;;;;10.32;100.00;98174.13;5063688;28;20584;-57
2021/11/14 04:14:30;;;;;;;26.80;17.90;;;;;;;10.30;100.00;98170.84;5062003;28;20040;-58
2021/11/14 04:16:55;;;;;;;26.17;18.08;;;;;;;10.28;100.00;98174.56;5072882;28;20747;-58
2021/11/14 04:19:21;;;;;;;24.35;17.85;;;;;;;10.31;100.00;98187.25;5072187;28;20031;-60
2021/11/14 04:21:46;;;;;;;27.35;17.65;;;;;;;10.27;100.00;98171.13;5077875;28;20228;-58
2021/11/14 04:24:12;;;;;;;24.33;17.30;;;;;;;10.18;100.00;98166.84;5071216;28;20020;-58
2021/11/14 04:26:37;;;;;;;23.92;16.65;;;;;;;10.24;100.00;98166.25;5075109;28;20099;-58
2021/11/14 04:29:03;;;;;;;24.92;16.48;;;;;;;10.26;100.00;98171.28;5077819;28;20032;-58
2021/11/14 04:31:29;;;;;;;27.88;17.73;;;;;;;10.22;100.00;98159.56;5069456;28;20029;-60
2021/11/14 04:33:54;;;;;;;27.13;18.00;;;;;;;10.12;100.00;98144.09;5074914;28;20028;-57
2021/11/14 04:36:19;;;;;;;27.35;18.10;;;;;;;10.18;100.00;98167.69;5073200;28;20055;-60
2021/11/14 04:38:45;;;;;;;27.58;18.90;;;;;;;10.13;100.00;98163.91;5077856;28;20107;-59
2021/11/14 04:41:10;;;;;;;27.20;17.75;;;;;;;10.04;100.00;98157.84;5106999;27;20127;-57
2021/11/14 04:43:36;;;;;;;25.95;17.40;;;;;;;9.75;100.00;98124.38;5078845;28;20036;-59
2021/11/14 04:46:01;;;;;;;28.17;17.60;;;;;;;10.01;100.00;98160.75;5074680;28;20566;-59
2021/11/14 04:48:26;;;;;;;27.48;18.05;;;;;;;10.09;100.00;98158.19;5073952;28;20058;-57
2021/11/14 04:50:53;;;;;;;21.17;14.43;;;;;;;10.12;100.00;98168.28;5064470;28;20382;-58
2021/11/14 04:53:19;;;;;;;16.38;9.32;;;;;;;10.04;100.00;98164.81;5074211;28;20517;-59
2021/11/14 04:55:45;;;;;;;12.18;7.53;;;;;;;9.91;100.00;98170.41;5065522;28;20021;-59
2021/11/14 04:58:12;;;;;;;11.98;7.43;;;;;;;9.62;100.00;98129.97;5071635;28;20034;-60
2021/11/14 05:00:42;;;;;;;11.35;7.32;;;;;;;9.98;100.00;98159.28;5074067;28;20032;-58
2021/11/14 05:03:07;;;;;;;10.73;6.68;;;;;;;9.69;100.00;98122.38;5053882;28;20483;-57
2021/11/14 05:05:33;;;;;;;11.65;7.13;;;;;;;9.89;100.00;98161.94;5076975;28;20028;-58
2021/11/14 05:07:59;;;;;;;10.60;6.35;;;;;;;9.82;100.00;98165.16;5072590;28;20036;-57
2021/11/14 05:10:25;;;;;;;11.05;6.13;;;;;;;9.79;100.00;98173.25;5051307;28;20509;-57
2021/11/14 05:12:50;;;;;;;8.38;5.18;;;;;;;9.81;100.00;98167.91;5081743;28;20106;-57
2021/11/14 05:15:16;;;;;;;10.15;5.60;;;;;;;9.53;100.00;98128.28;5069065;28;20032;-59
2021/11/14 05:17:41;;;;;;;9.30;6.03;;;;;;;9.75;100.00;98168.53;5065860;28;20028;-57
2021/11/14 05:20:08;;;;;;;10.07;5.55;;;;;;;9.77;100.00;98159.59;5078043;28;20475;-58
2021/11/14 05:22:33;;;;;;;11.23;5.88;;;;;;;9.84;100.00;98161.59;5077235;28;20397;-57
2021/11/14 05:24:58;;;;;;;9.60;5.53;;;;;;;9.59;100.00;98125.88;5073050;28;20024;-57
2021/11/14 05:27:24;;;;;;;9.27;5.25;;;;;;;9.71;100.00;98141.22;5078787;28;20074;-57
2021/11/14 05:29:50;;;;;;;12.05;5.95;;;;;;;9.87;100.00;98174.28;5065104;28;20036;-57
2021/11/14 05:32:15;;;;;;;10.23;5.82;;;;;;;9.67;100.00;98134.69;5073370;28;20020;-58
2021/11/14 05:34:41;;;;;;;11.30;6.45;;;;;;;9.82;100.00;98164.34;5068309;28;20032;-58
2021/11/14 05:37:07;;;;;;;10.93;7.05;;;;;;;9.59;100.00;98131.06;5075591;28;20442;-61
2021/11/14 05:39:32;;;;;;;16.55;10.95;;;;;;;9.90;100.00;98179.19;5069507;28;20033;-57
2021/11/14 05:41:58;;;;;;;17.50;11.00;;;;;;;9.87;100.00;98172.50;5074832;28;20044;-59
2021/11/14 05:44:23;;;;;;;19.95;13.05;;;;;;;9.72;100.00;98171.41;5074967;28;20040;-57
2021/11/14 05:46:49;;;;;;;17.52;11.68;;;;;;;9.62;100.00;98129.97;5073878;28;20111;-58
2021/11/14 05:49:15;;;;;;;18.20;11.85;;;;;;;9.56;100.00;98139.13;5075151;28;20028;-59
2021/11/14 05:51:42;;;;;;;9.70;5.93;;;;;;;9.74;100.00;98172.06;5063528;28;20121;-57
2021/11/14 05:54:08;;;;;;;8.50;5.32;;;;;;;9.61;100.00;98173.25;5071440;28;20044;-57
2021/11/14 05:56:34;;;;;;;7.88;4.65;;;;;;;9.57;100.00;98184.91;5070812;28;20042;-57
2021/11/14 06:02:00;;;;;;;7.38;4.60;;;;;;;9.59;100.00;98177.78;5068667;28;20040;-58
2021/11/14 06:04:54;;;;;;;8.00;4.70;;;;;;;9.61;100.00;98181.03;5074839;28;20077;-60
2021/11/14 06:07:20;;;;;;;9.00;4.85;;;;;;;9.57;100.00;98178.91;5078639;28;20032;-58
2021/11/14 06:09:46;;;;;;;9.02;4.97;;;;;;;9.70;100.00;98183.72;5077898;28;20086;-57
2021/11/14 06:12:11;;;;;;;7.95;4.75;;;;;;;9.75;100.00;98184.09;5062471;28;20161;-60
2021/11/14 06:14:36;;;;;;;10.60;5.63;;;;;;;9.80;100.00;98187.88;5053288;28;20036;-59
2021/11/14 06:17:02;;;;;;;11.32;7.13;;;;;;;9.58;100.00;98150.22;5069036;28;20577;-58
2021/11/14 06:19:28;;;;;;;9.57;6.57;;;;;;;9.85;100.00;98194.38;5076750;28;20646;-57
2021/11/14 06:21:53;;;;;;;10.15;6.38;;;;;;;9.82;100.00;98193.72;5068973;28;20107;-59
2021/11/14 06:24:19;;;;;;;9.77;5.88;;;;;;;9.64;100.00;98156.59;5069658;28;20036;-57
2021/11/14 06:26:45;;;;;;;11.70;5.88;;;;;;;9.86;100.00;98196.03;5069049;28;20055;-59
2021/11/14 06:29:11;;;;;;;11.88;7.78;;;;;;;9.85;100.00;98199.59;5074713;28;20028;-55
2021/11/14 06:31:36;;;;;;;11.07;7.45;;;;;;;9.78;100.00;98202.78;5061811;28;20047;-58
2021/11/14 06:34:02;;;;;;;10.40;6.72;;;;;;;9.81;100.00;98210.25;5048237;28;20475;-58
2021/11/14 06:36:29;;;;;;;11.75;7.68;;;;;;;9.81;100.00;98206.84;5069265;28;20161;-56
2021/11/14 06:38:54;;;;;;;13.98;7.95;;;;;;;9.66;100.00;98178.00;5061605;28;20032;-58
2021/11/14 06:41:20;;;;;;;12.48;7.78;;;;;;;9.75;100.00;98200.47;5064641;28;20489;-57
2021/11/14 06:43:45;;;;;;;14.32;8.65;;;;;;;9.80;100.00;98213.84;5061173;28;20029;-57
2021/11/14 06:46:11;;;;;;;11.40;7.57;;;;;;;9.50;100.00;98183.06;5070600;28;20107;-57
2021/11/14 06:48:37;;;;;;;11.68;7.03;;;;;;;9.79;100.00;98225.19;5064063;28;20491;-57
2021/11/14 06:51:02;;;;;;;11.10;6.93;;;;;;;9.81;100.00;98222.44;5069604;28;20030;-57
2021/11/14 06:53:28;;;;;;;11.68;7.32;;;;;;;9.86;100.00;98229.78;5065522;28;20031;-60
2021/11/14 06:55:53;;;;;;;10.90;6.25;;;;;;;9.91;100.00;98237.94;5067932;28;20032;-58
2021/11/14 06:58:19;;;;;;;10.30;6.35;;;;;;;9.62;100.00;98187.88;5075320;28;20509;-58
2021/11/14 07:00:45;;;;;;;10.05;6.10;;;;;;;9.80;100.00;98223.38;5070743;28;20023;-57
2021/11/14 07:03:11;;;;;;;13.18;6.50;;;;;;;9.53;100.00;98193.16;5072793;28;20372;-60
2021/11/14 07:05:36;;;;;;;12.00;7.80;;;;;;;9.86;100.00;98240.19;5069479;28;20055;-60
2021/11/14 07:08:02;;;;;;;11.82;7.30;;;;;;;9.56;100.00;98203.22;5071339;28;20107;-59
2021/11/14 07:10:27;;;;;;;12.85;7.43;;;;;;;9.80;100.00;98241.56;5065308;28;20028;-59
2021/11/14 07:12:53;;;;;;;12.32;7.90;;;;;;;9.89;100.00;98250.25;5060810;28;20039;-59
2021/11/14 07:15:18;;;;;;;13.40;8.10;;;;;;;9.87;100.00;98249.59;5043596;28;20062;-58
2021/11/14 07:17:44;;;;;;;11.57;7.95;;;;;;;9.90;100.00;98259.69;5050728;28;20029;-58
2021/11/14 07:20:11;;;;;;;12.77;8.00;;;;;;;9.59;100.00;98224.50;5070229;28;20028;-62
2021/11/14 07:22:36;;;;;;;12.68;7.72;;;;;;;9.84;100.00;98262.84;5067497;28;20500;-59
2021/11/14 07:25:03;;;;;;;14.40;8.55;;;;;;;9.84;100.00;98260.25;5066567;28;20045;-59
2021/11/14 07:27:29;;;;;;;13.48;8.48;;;;;;;9.80;100.00;98259.75;5059451;28;20036;-59
2021/11/14 07:29:54;;;;;;;14.60;9.00;;;;;;;9.88;100.00;98267.63;5066788;28;20384;-60
2021/11/14 07:32:20;;;;;;;13.10;8.32;;;;;;;9.81;100.00;98264.78;5068565;28;20050;-60
2021/11/14 07:34:46;;;;;;;12.95;8.45;;;;;;;9.83;100.00;98262.06;5054952;28;20025;-58
2021/11/14 07:37:11;;;;;;;12.02;8.63;;;;;;;9.84;100.00;98263.69;5068381;28;20036;-58
2021/11/14 07:39:37;;;;;;;12.65;7.90;;;;;;;9.60;100.00;98223.56;5069840;28;20071;-60
2021/11/14 07:42:03;;;;;;;12.27;7.25;;;;;;;9.87;100.00;98265.97;5064652;28;20119;-58
2021/11/14 07:44:29;;;;;;;12.95;7.75;;;;;;;9.93;100.00;98277.53;5066314;28;20474;-58
2021/11/14 07:46:54;;;;;;;12.93;7.78;;;;;;;9.96;100.00;98269.47;5100025;27;20040;-60
2021/11/14 07:49:20;;;;;;;13.98;7.50;;;;;;;9.84;100.00;98263.69;5061727;28;20032;-60
2021/11/14 07:51:45;;;;;;;12.05;8.00;;;;;;;9.88;100.00;98272.81;5068654;28;20558;-57
2021/11/14 07:54:11;;;;;;;13.13;7.80;;;;;;;9.96;100.00;98279.84;5069288;28;20030;-57
2021/11/14 07:56:36;;;;;;;12.43;7.70;;;;;;;9.93;100.00;98277.53;5065716;28;20546;-59
2021/11/14 07:59:02;;;;;;;11.70;6.97;;;;;;;10.00;100.00;98281.19;5070281;28;20071;-60
2021/11/14 08:01:27;;;;;;;10.23;6.82;;;;;;;9.99;100.00;98280.38;5067089;28;20043;-58
2021/11/14 08:03:53;;;;;;;10.48;6.63;;;;;;;9.93;100.00;98278.38;5073435;28;20379;-58
2021/11/14 08:06:19;;;;;;;11.98;7.03;;;;;;;9.88;100.00;98264.22;5068696;28;20032;-57
2021/11/14 08:08:45;;;;;;;12.25;6.50;;;;;;;9.99;100.00;98282.16;5079069;28;20114;-58
2021/11/14 08:11:11;;;;;;;11.48;7.05;;;;;;;9.96;100.00;98285.84;5073843;28;20657;-59
2021/11/14 08:13:36;;;;;;;13.02;7.80;;;;;;;10.00;100.00;98286.38;5072272;28;20650;-57
2021/11/14 08:16:02;;;;;;;12.35;7.90;;;;;;;9.81;100.00;98259.59;5068777;28;20046;-58
2021/11/14 08:18:27;;;;;;;13.13;7.20;;;;;;;9.83;100.00;98275.03;5064677;28;20112;-59
2021/11/14 08:20:53;;;;;;;12.40;8.23;;;;;;;9.94;100.00;98290.38;5060365;28;20402;-60
2021/11/14 08:23:20;;;;;;;11.73;7.50;;;;;;;9.93;100.00;98298.31;5049897;28;20076;-58
2021/11/14 08:25:47;;;;;;;12.85;7.40;;;;;;;9.95;100.00;98296.41;5068531;28;20164;-58
2021/11/14 08:28:13;;;;;;;11.52;7.53;;;;;;;9.89;100.00;98273.63;5075877;28;20024;-58
2021/11/14 08:30:40;;;;;;;14.38;7.68;;;;;;;9.94;100.00;98286.97;5071754;28;20321;-60
2021/11/14 08:33:06;;;;;;;11.13;6.53;;;;;;;10.03;100.00;98298.28;5069694;28;20024;-57
2021/11/14 08:35:32;;;;;;;9.75;5.78;;;;;;;9.87;100.00;98294.53;5076265;28;20042;-59
2021/11/14 08:37:57;;;;;;;8.95;6.03;;;;;;;9.92;100.00;98307.91;5069914;28;20028;-60
2021/11/14 08:40:25;;;;;;;9.70;6.30;;;;;;;9.96;100.00;98308.44;5068706;28;20824;-58
2021/11/14 08:42:50;;;;;;;9.32;6.43;;;;;;;10.02;100.00;98305.25;5077856;28;20420;-60
2021/11/14 08:45:16;;;;;;;9.45;5.97;;;;;;;9.95;100.00;98310.22;5063621;28;20032;-58
2021/11/14 08:47:41;;;;;;;10.45;6.35;;;;;;;10.04;100.00;98300.72;5068983;28;20027;-59
2021/11/14 08:50:08;;;;;;;11.63;6.55;;;;;;;9.98;100.00;98296.09;5064016;28;20028;-60
2021/11/14 08:52:34;;;;;;;11.02;6.68;;;;;;;10.04;100.00;98305.06;5076358;28;20133;-60
2021/11/14 08:54:59;;;;;;;10.27;6.63;;;;;;;10.05;100.00;98304.94;5067701;28;20032;-60
2021/11/14 08:57:25;;;;;;;10.02;6.28;;;;;;;9.96;100.00;98298.03;5069115;28;20527;-59
2021/11/14 08:59:51;;;;;;;9.98;6.43;;;;;;;10.02;100.00;98320.84;5103721;27;20135;-58
2021/11/14 09:02:17;;;;;;;9.13;6.00;;;;;;;10.05;100.00;98315.31;5069169;28;20119;-58
2021/11/14 09:04:43;;;;;;;12.98;7.60;;;;;;;10.10;100.00;98313.09;5066856;28;20038;-58
2021/11/14 09:07:08;;;;;;;11.85;7.80;;;;;;;10.09;100.00;98324.44;5066526;28;20051;-61
2021/11/14 09:09:35;;;;;;;14.00;7.50;;;;;;;10.00;100.00;98307.16;5057303;28;20020;-58
2021/11/14 09:12:01;;;;;;;12.80;6.97;;;;;;;10.03;100.00;98314.66;5067768;28;20107;-59
2021/11/14 09:14:26;;;;;;;11.88;6.43;;;;;;;9.95;100.00;98320.59;5068020;28;22122;-59
2021/11/14 09:16:53;;;;;;;9.98;6.25;;;;;;;9.79;100.00;98325.63;5102886;27;20060;-58
2021/11/14 09:19:19;;;;;;;10.73;6.40;;;;;;;9.89;100.00;98328.16;5073928;28;20444;-59
2021/11/14 09:21:45;;;;;;;10.02;6.18;;;;;;;9.82;100.00;98335.75;5057913;28;20308;-56
2021/11/14 09:24:10;;;;;;;9.38;5.32;;;;;;;9.80;100.00;98328.09;5064481;28;20078;-61
2021/11/14 09:26:37;;;;;;;8.68;4.50;;;;;;;9.69;100.00;98341.28;5039310;28;20035;-57
2021/11/14 09:29:03;;;;;;;7.60;4.70;;;;;;;9.74;100.00;98341.63;5070967;28;20429;-58
2021/11/14 09:31:28;;;;;;;8.20;3.63;;;;;;;9.64;100.00;98335.69;5068894;28;20608;-57
2021/11/14 09:33:54;;;;;;;7.40;3.60;;;;;;;9.71;100.00;98354.94;5069202;28;20028;-62
2021/11/14 09:36:26;;;;;;;6.40;2.97;;;;;;;9.55;100.00;98336.56;5069099;28;20137;-59
2021/11/14 09:38:52;;;;;;;6.80;2.70;;;;;;;9.43;100.00;98308.19;5070451;28;20324;-57
2021/11/14 09:41:18;;;;;;;5.30;2.38;;;;;;;9.44;100.00;98327.19;5065351;28;20028;-58
2021/11/14 09:43:43;;;;;;;5.18;1.70;;;;;;;9.52;100.00;98355.03;5064198;28;20077;-59
2021/11/14 09:46:08;;;;;;;4.55;1.80;;;;;;;9.62;100.00;98361.00;5069119;28;20062;-57
2021/11/14 09:48:34;;;;;;;4.63;2.17;;;;;;;9.55;100.00;98370.31;5066386;28;20059;-58
2021/11/14 09:51:00;;;;;;;4.15;1.60;;;;;;;9.55;100.00;98367.72;5067563;28;20412;-58
2021/11/14 09:53:28;;;;;;;4.90;1.55;;;;;;;9.61;100.00;98378.31;5069926;28;20099;-58
2021/11/14 09:55:54;;;;;;;4.68;1.20;;;;;;;9.53;99.46;98367.88;5069448;28;20028;-58
2021/11/14 09:58:21;;;;;;;3.20;1.08;;;;;;;9.45;97.72;98359.97;5068656;28;20506;-61
2021/11/14 10:00:47;;;;;;;2.97;1.00;;;;;;;9.46;98.86;98369.41;5076362;28;20020;-58
2021/11/14 10:03:12;;;;;;;3.00;1.00;;;;;;;9.42;97.98;98378.44;5072335;28;20232;-57
2021/11/14 10:05:39;;;;;;;3.45;0.95;;;;;;;9.35;97.75;98372.19;5066318;28;20055;-58
2021/11/14 10:08:08;;;;;;;3.92;1.00;;;;;;;9.14;98.08;98341.25;5075082;28;20363;-58
2021/11/14 10:10:44;;;;;;;4.43;1.40;;;;;;;9.20;100.00;98330.31;5103220;27;20068;-57
2021/11/14 10:13:22;;;;;;;4.22;1.48;;;;;;;9.40;100.00;98381.16;5071277;28;20032;-59
2021/11/14 10:15:50;;;;;;;4.10;1.55;;;;;;;9.33;100.00;98385.28;5070491;28;20487;-57
2021/11/14 10:18:20;;;;;;;4.28;1.50;;;;;;;9.24;99.22;98376.56;5067883;28;20021;-57
2021/11/14 10:20:46;;;;;;;3.28;1.10;;;;;;;9.21;100.00;98378.63;5065753;28;20037;-58
2021/11/14 10:23:15;;;;;;;4.00;1.00;;;;;;;9.21;100.00;98386.41;5064194;28;20032;-59
2021/11/14 10:25:46;;;;;;;3.80;0.90;;;;;;;9.14;100.00;98373.19;5065449;28;20319;-58
2021/11/14 10:28:11;;;;;;;5.00;1.45;;;;;;;8.88;100.00;98330.69;5070880;27;20035;-57
2021/11/14 10:30:41;;;;;;;4.88;1.45;;;;;;;9.16;100.00;98376.47;5049949;28;20032;-56
2021/11/14 10:33:12;;;;;;;4.47;1.20;;;;;;;9.14;100.00;98375.78;5059520;28;20035;-60
2021/11/14 10:35:40;;;;;;;4.28;1.27;;;;;;;8.80;100.00;98332.22;5059812;28;20027;-58
2021/11/14 10:38:09;;;;;;;4.13;1.30;;;;;;;9.06;100.00;98378.28;5069859;28;20487;-58
2021/11/14 10:40:41;;;;;;;4.03;1.70;;;;;;;9.05;100.00;98374.03;5058195;28;20016;-57
2021/11/14 10:43:07;;;;;;;5.15;1.48;;;;;;;9.03;99.53;98378.53;5066352;28;20040;-56
2021/11/14 10:45:38;;;;;;;3.95;0.90;;;;;;;9.02;95.87;98376.94;5061960;28;20098;-59
2021/11/14 10:48:13;;;;;;;4.20;0.80;;;;;;;9.11;96.05;98383.84;5065777;28;20550;-60
2021/11/14 10:50:42;;;;;;;10.07;4.80;;;;;;;9.00;98.08;98358.91;5070019;28;20038;-57
2021/11/14 10:53:09;;;;;;;6.82;2.63;;;;;;;8.95;98.06;98365.47;5064287;28;20078;-57
2021/11/14 10:55:40;;;;;;;4.40;1.58;;;;;;;8.98;98.89;98380.72;5069853;28;20050;-58
2021/11/14 10:58:07;;;;;;;3.55;1.20;;;;;;;8.64;97.43;98332.78;5065536;28;20047;-57
2021/11/14 11:00:33;;;;;;;4.78;1.40;;;;;;;8.90;98.30;98384.03;5065209;28;20031;-56
2021/11/14 11:03:01;;;;;;;4.85;1.42;;;;;;;8.75;97.24;98362.09;5066582;28;20028;-58
2021/11/14 11:05:27;;;;;;;3.17;0.98;;;;;;;8.88;99.13;98374.78;5094734;27;20041;-58
2021/11/14 11:08:00;;;;;;;4.13;1.77;;;;;;;8.79;97.75;98373.81;5070489;28;20466;-57
2021/11/14 11:10:31;;;;;;;4.60;1.52;;;;;;;8.84;98.26;98376.81;5064123;28;20059;-58
2021/11/14 11:12:57;;;;;;;4.22;1.63;;;;;;;8.82;99.63;98382.16;5060400;28;20032;-57
2021/11/14 11:15:23;;;;;;;3.47;1.30;;;;;;;8.93;97.46;98375.16;5067910;28;20457;-57
2021/11/14 11:17:51;;;;;;;4.05;1.50;;;;;;;8.88;97.90;98383.34;5061442;28;20823;-55
2021/11/14 11:20:24;;;;;;;3.30;1.30;;;;;;;8.79;96.80;98371.22;5070081;28;20032;-56